Chitose — JD2925 — position and weather

sailwx.info

Track history (hours):
 
Tides and Currents Weather Stations Pressure Air Temp Water Temp Dewpoint Dewpoint Depression Visibility Wind Speed Wind Dir Waves Ship Positions

Chitose

Last reported at 2015-Mar-03 14:33 UTC. Time now 2015-Mar-03 15:09 UTC.
Position N 35°27' E 139°39'.

Length 33 m; draft 3.8 m.

Type: Tug. MMSI: 431000953.

Date/timePositionNaut miles runAvg speedWind from/ knotsBaromVisibWave heightAir tempDewpointWater temp
2015-Mar-03 14:33N 35°27' E 139°39'0 0.0
2015-Mar-03 13:33N 35°27' E 139°39'0 0.0
2015-Mar-03 12:33N 35°27' E 139°39'0 0.0
2015-Mar-03 11:33N 35°27' E 139°39'0 0.0
2015-Mar-03 10:33N 35°27' E 139°39'0 0.0
2015-Mar-03 09:33N 35°27' E 139°39'0 0.0
2015-Mar-03 08:33N 35°27' E 139°39'0 0.0
2015-Mar-03 07:33N 35°27' E 139°39'0 0.0
2015-Mar-03 06:33N 35°27' E 139°39'0 0.0
2015-Mar-03 05:33N 35°27' E 139°39'0 0.0
2015-Mar-03 04:33N 35°27' E 139°39'0 0.0
2015-Mar-03 03:33N 35°27' E 139°39'0 0.0
2015-Mar-03 02:33N 35°27' E 139°39'2 1.6
2015-Mar-03 01:33N 35°27' E 139°41'4 3.8
2015-Mar-03 00:33N 35°24' E 139°38'1 1.3
2015-Mar-02 23:33N 35°23' E 139°40'0 0.0
2015-Mar-02 22:33N 35°24' E 139°40'2 1.8
2015-Mar-02 21:33N 35°24' E 139°37'4 3.7
2015-Mar-02 20:33N 35°27' E 139°39'0 0.1
2015-Mar-02 19:33N 35°27' E 139°39'0 0.0
2015-Mar-02 18:33N 35°27' E 139°39'0 0.0
2015-Mar-02 17:33N 35°27' E 139°39'0 0.0
2015-Mar-02 16:33N 35°27' E 139°39'0 0.0
2015-Mar-02 15:33N 35°27' E 139°39'0 0.0
2015-Mar-02 14:33N 35°27' E 139°39'0 0.0
2015-Mar-02 13:33N 35°27' E 139°39'0 0.0
2015-Mar-02 12:33N 35°27' E 139°39'0 0.0
2015-Mar-02 11:33N 35°27' E 139°39'0 0.0
2015-Mar-02 10:34N 35°27' E 139°39'2 2.1
2015-Mar-02 09:33N 35°28' E 139°41'2 2.4
2015-Mar-02 08:33N 35°27' E 139°43'1 1.1
2015-Mar-02 07:33N 35°28' E 139°44'4 3.5
2015-Mar-02 06:32N 35°30' E 139°47'5 5.1
2015-Mar-02 05:33N 35°29' E 139°42'3 2.8
2015-Mar-02 04:33N 35°27' E 139°39'0 0.0
2015-Mar-02 03:33N 35°27' E 139°39'0 0.0
2015-Mar-02 02:33N 35°27' E 139°39'0 0.0
2015-Mar-02 01:33N 35°27' E 139°39'0 0.0
2015-Mar-02 00:33N 35°27' E 139°39'1 0.6
2015-Mar-01 23:33N 35°27' E 139°39'4 3.8
2015-Mar-01 22:33N 35°30' E 139°43'2 2.2
2015-Mar-01 21:33N 35°27' E 139°43'4 3.6
2015-Mar-01 20:33N 35°27' E 139°39'0 0.0
2015-Mar-01 08:07N 35°27' E 139°39'5 8.9
2015-Mar-01 07:33N 35°28' E 139°45'0 0.4
2015-Mar-01 06:33N 35°29' E 139°45'2 2.0
2015-Mar-01 05:33N 35°27' E 139°45'1 1.5
2015-Mar-01 04:33N 35°28' E 139°45'6 6.0
2015-Mar-01 03:32N 35°30' E 139°53'3 0.7
2015-Feb-28 23:33N 35°28' E 139°51'10 9.7
2015-Feb-28 22:33N 35°27' E 139°39'7 0.6
2015-Feb-28 09:33N 35°29' E 139°47'3 3.3
2015-Feb-28 08:33N 35°30' E 139°43'0 0.2
2015-Feb-28 07:33N 35°29' E 139°43'3 2.8
2015-Feb-28 06:33N 35°27' E 139°44'4 4.0
2015-Feb-28 05:33N 35°27' E 139°39'0 0.0
2015-Feb-28 04:33N 35°27' E 139°39'2 1.6
2015-Feb-28 03:33N 35°27' E 139°41'1 1.5
2015-Feb-28 02:34N 35°25' E 139°41'1 0.8
2015-Feb-28 01:33N 35°26' E 139°42'2 2.0
2015-Feb-28 00:33N 35°28' E 139°42'1 0.9
2015-Feb-27 23:33N 35°27' E 139°41'2 1.9
2015-Feb-27 22:33N 35°27' E 139°39'0 0.0
2015-Feb-27 21:33N 35°27' E 139°39'0 0.0
2015-Feb-27 11:30N 35°27' E 139°39'2 2.6
2015-Feb-27 10:33N 35°26' E 139°42'1 1.3
2015-Feb-27 09:33N 35°27' E 139°43'0 0.4
2015-Feb-27 08:34N 35°27' E 139°42'4 4.1
2015-Feb-27 07:32N 35°29' E 139°47'1 0.7
2015-Feb-27 06:25N 35°28' E 139°47'2 2.6
2015-Feb-27 05:33N 35°28' E 139°44'0 0.0
2015-Feb-27 04:33N 35°28' E 139°44'0 0.0
2015-Feb-27 03:33N 35°28' E 139°44'0 0.0
2015-Feb-27 02:33N 35°28' E 139°44'1 0.3
2015-Feb-27 00:32N 35°28' E 139°44'2 1.6
2015-Feb-26 23:33N 35°27' E 139°43'0 0.0
2015-Feb-26 22:33N 35°27' E 139°43'2 1.5
2015-Feb-26 21:33N 35°27' E 139°41'2 1.7
2015-Feb-26 20:33N 35°27' E 139°39'0 0.0
2015-Feb-26 09:20N 35°27' E 139°39'7 8.8
2015-Feb-26 08:32N 35°31' E 139°46'0 0.0
2015-Feb-26 07:33N 35°31' E 139°46'1 1.3
2015-Feb-26 06:33N 35°30' E 139°47'1 0.2
2015-Feb-26 03:06N 35°29' E 139°47'2 3.9
2015-Feb-26 02:33N 35°29' E 139°44'2 1.6
2015-Feb-26 01:33N 35°28' E 139°46'1 1.2
2015-Feb-26 00:33N 35°29' E 139°46'5 0.3
2015-Feb-25 07:33N 35°27' E 139°39'1 0.7
2015-Feb-25 06:33N 35°27' E 139°40'1 0.9
2015-Feb-25 05:33N 35°27' E 139°41'1 0.8
2015-Feb-25 04:33N 35°26' E 139°41'1 1.0
2015-Feb-25 03:33N 35°27' E 139°42'1 0.9
2015-Feb-25 02:33N 35°27' E 139°41'1 1.1
2015-Feb-25 01:33N 35°28' E 139°40'0 0.0
2015-Feb-25 00:33N 35°28' E 139°40'0 0.0
2015-Feb-24 23:33N 35°28' E 139°40'0 0.0
2015-Feb-24 22:33N 35°28' E 139°40'2 1.8
2015-Feb-24 21:33N 35°26' E 139°42'3 2.9
2015-Feb-24 20:33N 35°27' E 139°39'0 0.0
2015-Feb-24 09:23N 35°27' E 139°39'2 2.7
2015-Feb-24 08:33N 35°27' E 139°41'0 0.4
2015-Feb-24 07:33N 35°27' E 139°41'1 0.8
2015-Feb-24 06:33N 35°26' E 139°41'2 2.1
2015-Feb-24 05:33N 35°27' E 139°39'0 0.0
2015-Feb-24 04:33N 35°27' E 139°39'0 0.0
2015-Feb-24 03:33N 35°27' E 139°39'3 3.3
2015-Feb-24 02:33N 35°27' E 139°43'4 4.1
2015-Feb-24 01:33N 35°29' E 139°47'2 1.4
2015-Feb-24 00:04N 35°27' E 139°46'1 1.6
2015-Feb-23 23:33N 35°28' E 139°45'1 0.8
2015-Feb-23 22:33N 35°28' E 139°44'5 4.9
2015-Feb-23 21:33N 35°27' E 139°39'0 0.0
2015-Feb-23 20:33N 35°27' E 139°39'0 0.0
2015-Feb-23 19:34N 35°27' E 139°39'0 0.0
2015-Feb-23 18:33N 35°27' E 139°39'0 0.0
2015-Feb-23 17:34N 35°27' E 139°39'0 0.0
2015-Feb-23 16:33N 35°27' E 139°39'0 0.0
2015-Feb-23 15:33N 35°27' E 139°39'0 0.0
2015-Feb-23 14:33N 35°27' E 139°39'0 0.0
2015-Feb-23 13:34N 35°27' E 139°39'0 0.0
2015-Feb-23 12:33N 35°27' E 139°39'0 0.0
2015-Feb-23 11:34N 35°27' E 139°39'0 0.0
2015-Feb-23 10:33N 35°27' E 139°39'0 0.0
2015-Feb-23 09:33N 35°27' E 139°39'5 4.7
2015-Feb-23 08:33N 35°30' E 139°44'3 3.3
2015-Feb-23 07:33N 35°26' E 139°43'4 3.9
2015-Feb-23 06:34N 35°27' E 139°39'1 0.7
2015-Feb-23 05:33N 35°27' E 139°39'0 0.4
2015-Feb-23 04:33N 35°27' E 139°39'2 1.6
2015-Feb-23 03:34N 35°27' E 139°41'2 1.9
2015-Feb-23 02:34N 35°27' E 139°39'0 0.0
2015-Feb-23 01:34N 35°27' E 139°39'0 0.0
2015-Feb-23 00:34N 35°27' E 139°39'0 0.0
2015-Feb-22 23:34N 35°27' E 139°39'7 6.9
2015-Feb-22 22:32N 35°31' E 139°46'3 2.8
2015-Feb-22 21:33N 35°29' E 139°43'4 4.2
2015-Feb-22 20:33N 35°27' E 139°39'  
Track history (hours):
 
Tides and Currents Weather Stations Pressure Air Temp Water Temp Dewpoint Dewpoint Depression Visibility Wind Speed Wind Dir Waves Ship Positions

Chitose

Last reported at 2015-Mar-03 14:33 UTC. Time now 2015-Mar-03 15:09 UTC.
Position N 35°27' E 139°39'.

Length 33 m; draft 3.8 m.

Type: Tug. MMSI: 431000953.

Date/timePositionNaut miles runAvg speedWind from/ knotsBaromVisibWave heightAir tempDewpointWater temp
2015-Mar-03 14:33N 35°27' E 139°39'0 0.0
2015-Mar-03 13:33N 35°27' E 139°39'0 0.0
2015-Mar-03 12:33N 35°27' E 139°39'0 0.0
2015-Mar-03 11:33N 35°27' E 139°39'0 0.0
2015-Mar-03 10:33N 35°27' E 139°39'0 0.0
2015-Mar-03 09:33N 35°27' E 139°39'0 0.0
2015-Mar-03 08:33N 35°27' E 139°39'0 0.0
2015-Mar-03 07:33N 35°27' E 139°39'0 0.0
2015-Mar-03 06:33N 35°27' E 139°39'0 0.0
2015-Mar-03 05:33N 35°27' E 139°39'0 0.0
2015-Mar-03 04:33N 35°27' E 139°39'0 0.0
2015-Mar-03 03:33N 35°27' E 139°39'0 0.0
2015-Mar-03 02:33N 35°27' E 139°39'2 1.6
2015-Mar-03 01:33N 35°27' E 139°41'4 3.8
2015-Mar-03 00:33N 35°24' E 139°38'1 1.3
2015-Mar-02 23:33N 35°23' E 139°40'0 0.0
2015-Mar-02 22:33N 35°24' E 139°40'2 1.8
2015-Mar-02 21:33N 35°24' E 139°37'4 3.7
2015-Mar-02 20:33N 35°27' E 139°39'0 0.1
2015-Mar-02 19:33N 35°27' E 139°39'0 0.0
2015-Mar-02 18:33N 35°27' E 139°39'0 0.0
2015-Mar-02 17:33N 35°27' E 139°39'0 0.0
2015-Mar-02 16:33N 35°27' E 139°39'0 0.0
2015-Mar-02 15:33N 35°27' E 139°39'0 0.0
2015-Mar-02 14:33N 35°27' E 139°39'0 0.0
2015-Mar-02 13:33N 35°27' E 139°39'0 0.0
2015-Mar-02 12:33N 35°27' E 139°39'0 0.0
2015-Mar-02 11:33N 35°27' E 139°39'0 0.0
2015-Mar-02 10:34N 35°27' E 139°39'2 2.1
2015-Mar-02 09:33N 35°28' E 139°41'2 2.4
2015-Mar-02 08:33N 35°27' E 139°43'1 1.1
2015-Mar-02 07:33N 35°28' E 139°44'4 3.5
2015-Mar-02 06:32N 35°30' E 139°47'5 5.1
2015-Mar-02 05:33N 35°29' E 139°42'3 2.8
2015-Mar-02 04:33N 35°27' E 139°39'0 0.0
2015-Mar-02 03:33N 35°27' E 139°39'0 0.0
2015-Mar-02 02:33N 35°27' E 139°39'0 0.0
2015-Mar-02 01:33N 35°27' E 139°39'0 0.0
2015-Mar-02 00:33N 35°27' E 139°39'1 0.6
2015-Mar-01 23:33N 35°27' E 139°39'4 3.8
2015-Mar-01 22:33N 35°30' E 139°43'2 2.2
2015-Mar-01 21:33N 35°27' E 139°43'4 3.6
2015-Mar-01 20:33N 35°27' E 139°39'0 0.0
2015-Mar-01 08:07N 35°27' E 139°39'5 8.9
2015-Mar-01 07:33N 35°28' E 139°45'0 0.4
2015-Mar-01 06:33N 35°29' E 139°45'2 2.0
2015-Mar-01 05:33N 35°27' E 139°45'1 1.5
2015-Mar-01 04:33N 35°28' E 139°45'6 6.0
2015-Mar-01 03:32N 35°30' E 139°53'3 0.7
2015-Feb-28 23:33N 35°28' E 139°51'10 9.7
2015-Feb-28 22:33N 35°27' E 139°39'7 0.6
2015-Feb-28 09:33N 35°29' E 139°47'3 3.3
2015-Feb-28 08:33N 35°30' E 139°43'0 0.2
2015-Feb-28 07:33N 35°29' E 139°43'3 2.8
2015-Feb-28 06:33N 35°27' E 139°44'4 4.0
2015-Feb-28 05:33N 35°27' E 139°39'0 0.0
2015-Feb-28 04:33N 35°27' E 139°39'2 1.6
2015-Feb-28 03:33N 35°27' E 139°41'1 1.5
2015-Feb-28 02:34N 35°25' E 139°41'1 0.8
2015-Feb-28 01:33N 35°26' E 139°42'2 2.0
2015-Feb-28 00:33N 35°28' E 139°42'1 0.9
2015-Feb-27 23:33N 35°27' E 139°41'2 1.9
2015-Feb-27 22:33N 35°27' E 139°39'0 0.0
2015-Feb-27 21:33N 35°27' E 139°39'0 0.0
2015-Feb-27 11:30N 35°27' E 139°39'2 2.6
2015-Feb-27 10:33N 35°26' E 139°42'1 1.3
2015-Feb-27 09:33N 35°27' E 139°43'0 0.4
2015-Feb-27 08:34N 35°27' E 139°42'4 4.1
2015-Feb-27 07:32N 35°29' E 139°47'1 0.7
2015-Feb-27 06:25N 35°28' E 139°47'2 2.6
2015-Feb-27 05:33N 35°28' E 139°44'0 0.0
2015-Feb-27 04:33N 35°28' E 139°44'0 0.0
2015-Feb-27 03:33N 35°28' E 139°44'0 0.0
2015-Feb-27 02:33N 35°28' E 139°44'1 0.3
2015-Feb-27 00:32N 35°28' E 139°44'2 1.6
2015-Feb-26 23:33N 35°27' E 139°43'0 0.0
2015-Feb-26 22:33N 35°27' E 139°43'2 1.5
2015-Feb-26 21:33N 35°27' E 139°41'2 1.7
2015-Feb-26 20:33N 35°27' E 139°39'0 0.0
2015-Feb-26 09:20N 35°27' E 139°39'7 8.8
2015-Feb-26 08:32N 35°31' E 139°46'0 0.0
2015-Feb-26 07:33N 35°31' E 139°46'1 1.3
2015-Feb-26 06:33N 35°30' E 139°47'1 0.2
2015-Feb-26 03:06N 35°29' E 139°47'2 3.9
2015-Feb-26 02:33N 35°29' E 139°44'2 1.6
2015-Feb-26 01:33N 35°28' E 139°46'1 1.2
2015-Feb-26 00:33N 35°29' E 139°46'5 0.3
2015-Feb-25 07:33N 35°27' E 139°39'1 0.7
2015-Feb-25 06:33N 35°27' E 139°40'1 0.9
2015-Feb-25 05:33N 35°27' E 139°41'1 0.8
2015-Feb-25 04:33N 35°26' E 139°41'1 1.0
2015-Feb-25 03:33N 35°27' E 139°42'1 0.9
2015-Feb-25 02:33N 35°27' E 139°41'1 1.1
2015-Feb-25 01:33N 35°28' E 139°40'0 0.0
2015-Feb-25 00:33N 35°28' E 139°40'0 0.0
2015-Feb-24 23:33N 35°28' E 139°40'0 0.0
2015-Feb-24 22:33N 35°28' E 139°40'2 1.8
2015-Feb-24 21:33N 35°26' E 139°42'3 2.9
2015-Feb-24 20:33N 35°27' E 139°39'0 0.0
2015-Feb-24 09:23N 35°27' E 139°39'2 2.7
2015-Feb-24 08:33N 35°27' E 139°41'0 0.4
2015-Feb-24 07:33N 35°27' E 139°41'1 0.8
2015-Feb-24 06:33N 35°26' E 139°41'2 2.1
2015-Feb-24 05:33N 35°27' E 139°39'0 0.0
2015-Feb-24 04:33N 35°27' E 139°39'0 0.0
2015-Feb-24 03:33N 35°27' E 139°39'3 3.3
2015-Feb-24 02:33N 35°27' E 139°43'4 4.1
2015-Feb-24 01:33N 35°29' E 139°47'2 1.4
2015-Feb-24 00:04N 35°27' E 139°46'1 1.6
2015-Feb-23 23:33N 35°28' E 139°45'1 0.8
2015-Feb-23 22:33N 35°28' E 139°44'5 4.9
2015-Feb-23 21:33N 35°27' E 139°39'0 0.0
2015-Feb-23 20:33N 35°27' E 139°39'0 0.0
2015-Feb-23 19:34N 35°27' E 139°39'0 0.0
2015-Feb-23 18:33N 35°27' E 139°39'0 0.0
2015-Feb-23 17:34N 35°27' E 139°39'0 0.0
2015-Feb-23 16:33N 35°27' E 139°39'0 0.0
2015-Feb-23 15:33N 35°27' E 139°39'0 0.0
2015-Feb-23 14:33N 35°27' E 139°39'0 0.0
2015-Feb-23 13:34N 35°27' E 139°39'0 0.0
2015-Feb-23 12:33N 35°27' E 139°39'0 0.0
2015-Feb-23 11:34N 35°27' E 139°39'0 0.0
2015-Feb-23 10:33N 35°27' E 139°39'0 0.0
2015-Feb-23 09:33N 35°27' E 139°39'5 4.7
2015-Feb-23 08:33N 35°30' E 139°44'3 3.3
2015-Feb-23 07:33N 35°26' E 139°43'4 3.9
2015-Feb-23 06:34N 35°27' E 139°39'1 0.7
2015-Feb-23 05:33N 35°27' E 139°39'0 0.4
2015-Feb-23 04:33N 35°27' E 139°39'2 1.6
2015-Feb-23 03:34N 35°27' E 139°41'2 1.9
2015-Feb-23 02:34N 35°27' E 139°39'0 0.0
2015-Feb-23 01:34N 35°27' E 139°39'0 0.0
2015-Feb-23 00:34N 35°27' E 139°39'0 0.0
2015-Feb-22 23:34N 35°27' E 139°39'7 6.9
2015-Feb-22 22:32N 35°31' E 139°46'3 2.8
2015-Feb-22 21:33N 35°29' E 139°43'4 4.2
2015-Feb-22 20:33N 35°27' E 139°39'  

Dump ship's entire track history